sensor_id;sensor_type;location;lat;lon;timestamp;P1;durP1;ratioP1;P2;durP2;ratioP2
3587;SDS011;1808;53.596;9.972;2023-02-15T00:01:14;140.93;;;39.25;;
3587;SDS011;1808;53.596;9.972;2023-02-15T00:03:40;154.93;;;42.00;;
3587;SDS011;1808;53.596;9.972;2023-02-15T00:06:07;137.80;;;36.15;;
3587;SDS011;1808;53.596;9.972;2023-02-15T00:08:33;121.55;;;34.28;;
3587;SDS011;1808;53.596;9.972;2023-02-15T00:11:03;141.60;;;39.25;;
3587;SDS011;1808;53.596;9.972;2023-02-15T00:13:31;131.30;;;38.58;;
3587;SDS011;1808;53.596;9.972;2023-02-15T00:16:01;124.78;;;33.67;;
3587;SDS011;1808;53.596;9.972;2023-02-15T00:18:28;124.97;;;36.70;;
3587;SDS011;1808;53.596;9.972;2023-02-15T00:20:55;173.77;;;39.47;;
3587;SDS011;1808;53.596;9.972;2023-02-15T00:23:21;148.70;;;37.72;;
3587;SDS011;1808;53.596;9.972;2023-02-15T00:25:48;131.90;;;34.92;;
3587;SDS011;1808;53.596;9.972;2023-02-15T00:28:14;133.80;;;37.97;;
3587;SDS011;1808;53.596;9.972;2023-02-15T00:30:41;135.45;;;37.33;;
3587;SDS011;1808;53.596;9.972;2023-02-15T00:33:09;151.75;;;40.78;;
3587;SDS011;1808;53.596;9.972;2023-02-15T00:35:35;134.43;;;35.40;;
3587;SDS011;1808;53.596;9.972;2023-02-15T00:38:02;170.63;;;39.80;;
3587;SDS011;1808;53.596;9.972;2023-02-15T00:40:28;167.20;;;42.97;;
3587;SDS011;1808;53.596;9.972;2023-02-15T00:42:55;140.43;;;39.00;;
3587;SDS011;1808;53.596;9.972;2023-02-15T00:45:23;151.52;;;37.35;;
3587;SDS011;1808;53.596;9.972;2023-02-15T00:47:49;176.48;;;42.22;;
3587;SDS011;1808;53.596;9.972;2023-02-15T00:50:17;168.55;;;41.55;;
3587;SDS011;1808;53.596;9.972;2023-02-15T00:52:44;148.27;;;38.85;;
3587;SDS011;1808;53.596;9.972;2023-02-15T00:55:11;166.80;;;42.63;;
3587;SDS011;1808;53.596;9.972;2023-02-15T00:57:37;154.73;;;37.78;;
3587;SDS011;1808;53.596;9.972;2023-02-15T01:00:04;134.52;;;38.40;;
3587;SDS011;1808;53.596;9.972;2023-02-15T01:02:31;161.55;;;42.70;;
3587;SDS011;1808;53.596;9.972;2023-02-15T01:04:58;161.40;;;39.80;;
3587;SDS011;1808;53.596;9.972;2023-02-15T01:07:26;146.70;;;38.67;;
3587;SDS011;1808;53.596;9.972;2023-02-15T01:09:52;164.63;;;41.63;;
3587;SDS011;1808;53.596;9.972;2023-02-15T01:12:18;153.35;;;40.35;;
3587;SDS011;1808;53.596;9.972;2023-02-15T01:14:45;156.55;;;37.25;;
3587;SDS011;1808;53.596;9.972;2023-02-15T01:17:11;165.52;;;39.30;;
3587;SDS011;1808;53.596;9.972;2023-02-15T01:19:38;163.10;;;41.08;;
3587;SDS011;1808;53.596;9.972;2023-02-15T01:22:04;154.82;;;40.78;;
3587;SDS011;1808;53.596;9.972;2023-02-15T01:24:32;147.38;;;39.75;;
3587;SDS011;1808;53.596;9.972;2023-02-15T01:26:58;161.73;;;42.47;;
3587;SDS011;1808;53.596;9.972;2023-02-15T01:29:25;146.55;;;39.03;;
3587;SDS011;1808;53.596;9.972;2023-02-15T01:31:51;163.68;;;43.00;;
3587;SDS011;1808;53.596;9.972;2023-02-15T01:34:18;156.48;;;39.28;;
3587;SDS011;1808;53.596;9.972;2023-02-15T01:36:44;172.02;;;42.22;;
3587;SDS011;1808;53.596;9.972;2023-02-15T01:39:11;136.80;;;37.40;;
3587;SDS011;1808;53.596;9.972;2023-02-15T01:41:39;140.48;;;39.33;;
3587;SDS011;1808;53.596;9.972;2023-02-15T01:47:06;152.65;;;38.92;;
3587;SDS011;1808;53.596;9.972;2023-02-15T01:49:33;178.32;;;40.78;;
3587;SDS011;1808;53.596;9.972;2023-02-15T01:52:00;146.55;;;38.13;;
3587;SDS011;1808;53.596;9.972;2023-02-15T01:54:27;144.65;;;38.53;;
3587;SDS011;1808;53.596;9.972;2023-02-15T01:56:58;145.95;;;37.08;;
3587;SDS011;1808;53.596;9.972;2023-02-15T01:59:27;172.80;;;43.50;;
3587;SDS011;1808;53.596;9.972;2023-02-15T02:01:54;153.00;;;39.97;;
3587;SDS011;1808;53.596;9.972;2023-02-15T02:04:24;136.52;;;35.05;;
3587;SDS011;1808;53.596;9.972;2023-02-15T02:06:53;132.38;;;36.20;;
3587;SDS011;1808;53.596;9.972;2023-02-15T02:09:20;127.85;;;34.53;;
3587;SDS011;1808;53.596;9.972;2023-02-15T02:11:46;125.45;;;37.00;;
3587;SDS011;1808;53.596;9.972;2023-02-15T02:14:15;147.40;;;40.33;;
3587;SDS011;1808;53.596;9.972;2023-02-15T02:16:42;116.05;;;36.17;;
3587;SDS011;1808;53.596;9.972;2023-02-15T02:22:20;119.57;;;32.38;;
3587;SDS011;1808;53.596;9.972;2023-02-15T02:25:03;115.05;;;31.70;;
3587;SDS011;1808;53.596;9.972;2023-02-15T02:27:39;130.73;;;35.45;;
3587;SDS011;1808;53.596;9.972;2023-02-15T02:30:16;145.00;;;37.08;;
3587;SDS011;1808;53.596;9.972;2023-02-15T02:35:44;134.23;;;34.92;;
3587;SDS011;1808;53.596;9.972;2023-02-15T02:38:19;149.18;;;37.60;;
3587;SDS011;1808;53.596;9.972;2023-02-15T02:40:50;132.25;;;35.88;;
3587;SDS011;1808;53.596;9.972;2023-02-15T02:43:20;154.18;;;39.63;;
3587;SDS011;1808;53.596;9.972;2023-02-15T02:45:49;145.15;;;38.80;;
3587;SDS011;1808;53.596;9.972;2023-02-15T02:48:20;125.47;;;34.90;;
3587;SDS011;1808;53.596;9.972;2023-02-15T02:50:48;141.30;;;38.63;;
3587;SDS011;1808;53.596;9.972;2023-02-15T02:53:15;230.77;;;45.05;;
3587;SDS011;1808;53.596;9.972;2023-02-15T02:55:42;171.20;;;39.60;;
3587;SDS011;1808;53.596;9.972;2023-02-15T02:58:12;148.40;;;38.25;;
3587;SDS011;1808;53.596;9.972;2023-02-15T03:00:42;124.18;;;34.85;;
3587;SDS011;1808;53.596;9.972;2023-02-15T03:03:12;143.90;;;35.45;;
3587;SDS011;1808;53.596;9.972;2023-02-15T03:05:44;151.80;;;37.65;;
3587;SDS011;1808;53.596;9.972;2023-02-15T03:08:13;162.02;;;37.97;;
3587;SDS011;1808;53.596;9.972;2023-02-15T03:10:46;133.93;;;34.72;;
3587;SDS011;1808;53.596;9.972;2023-02-15T03:13:13;134.20;;;36.90;;
3587;SDS011;1808;53.596;9.972;2023-02-15T03:15:40;139.30;;;38.55;;
3587;SDS011;1808;53.596;9.972;2023-02-15T03:18:26;154.25;;;39.03;;
3587;SDS011;1808;53.596;9.972;2023-02-15T03:20:56;131.65;;;33.90;;
3587;SDS011;1808;53.596;9.972;2023-02-15T03:23:24;139.23;;;36.78;;
3587;SDS011;1808;53.596;9.972;2023-02-15T03:25:52;125.43;;;35.35;;
3587;SDS011;1808;53.596;9.972;2023-02-15T03:28:22;139.13;;;34.38;;
3587;SDS011;1808;53.596;9.972;2023-02-15T03:30:52;127.47;;;35.75;;
3587;SDS011;1808;53.596;9.972;2023-02-15T03:33:20;120.55;;;35.35;;
3587;SDS011;1808;53.596;9.972;2023-02-15T03:35:49;138.07;;;36.88;;
3587;SDS011;1808;53.596;9.972;2023-02-15T03:38:20;131.60;;;34.33;;
3587;SDS011;1808;53.596;9.972;2023-02-15T03:40:51;122.03;;;33.35;;
3587;SDS011;1808;53.596;9.972;2023-02-15T03:43:38;131.75;;;38.38;;
3587;SDS011;1808;53.596;9.972;2023-02-15T03:46:11;123.60;;;33.80;;
3587;SDS011;1808;53.596;9.972;2023-02-15T03:48:40;116.68;;;33.60;;
3587;SDS011;1808;53.596;9.972;2023-02-15T03:51:09;128.52;;;36.05;;
3587;SDS011;1808;53.596;9.972;2023-02-15T03:53:57;130.00;;;35.05;;
3587;SDS011;1808;53.596;9.972;2023-02-15T03:56:24;116.32;;;33.15;;
3587;SDS011;1808;53.596;9.972;2023-02-15T03:58:51;129.88;;;33.13;;
3587;SDS011;1808;53.596;9.972;2023-02-15T04:01:34;104.53;;;31.58;;
3587;SDS011;1808;53.596;9.972;2023-02-15T04:04:21;115.28;;;31.00;;
3587;SDS011;1808;53.596;9.972;2023-02-15T04:06:49;110.25;;;31.55;;
3587;SDS011;1808;53.596;9.972;2023-02-15T04:09:16;106.75;;;29.85;;
3587;SDS011;1808;53.596;9.972;2023-02-15T04:12:00;113.45;;;31.15;;
3587;SDS011;1808;53.596;9.972;2023-02-15T04:14:27;107.03;;;31.85;;
3587;SDS011;1808;53.596;9.972;2023-02-15T04:17:11;99.72;;;30.05;;
3587;SDS011;1808;53.596;9.972;2023-02-15T04:19:37;134.05;;;39.50;;
3587;SDS011;1808;53.596;9.972;2023-02-15T04:22:21;105.72;;;31.13;;
3587;SDS011;1808;53.596;9.972;2023-02-15T04:25:06;109.25;;;31.73;;
3587;SDS011;1808;53.596;9.972;2023-02-15T04:27:36;116.32;;;30.67;;
3587;SDS011;1808;53.596;9.972;2023-02-15T04:30:03;107.15;;;32.75;;
3587;SDS011;1808;53.596;9.972;2023-02-15T04:32:30;111.45;;;30.77;;
3587;SDS011;1808;53.596;9.972;2023-02-15T04:34:56;109.10;;;32.13;;
3587;SDS011;1808;53.596;9.972;2023-02-15T04:37:22;124.97;;;35.15;;
3587;SDS011;1808;53.596;9.972;2023-02-15T04:39:49;127.78;;;35.17;;
3587;SDS011;1808;53.596;9.972;2023-02-15T04:42:16;133.60;;;35.33;;
3587;SDS011;1808;53.596;9.972;2023-02-15T04:44:43;104.03;;;31.63;;
3587;SDS011;1808;53.596;9.972;2023-02-15T04:47:09;113.05;;;33.53;;
3587;SDS011;1808;53.596;9.972;2023-02-15T04:49:36;113.07;;;32.58;;
3587;SDS011;1808;53.596;9.972;2023-02-15T04:52:02;115.78;;;32.22;;
3587;SDS011;1808;53.596;9.972;2023-02-15T04:54:28;99.03;;;30.02;;
3587;SDS011;1808;53.596;9.972;2023-02-15T04:56:55;106.25;;;30.23;;
3587;SDS011;1808;53.596;9.972;2023-02-15T04:59:22;101.93;;;31.92;;
3587;SDS011;1808;53.596;9.972;2023-02-15T05:01:49;103.63;;;30.75;;
3587;SDS011;1808;53.596;9.972;2023-02-15T05:04:15;93.38;;;27.90;;
3587;SDS011;1808;53.596;9.972;2023-02-15T05:06:41;89.90;;;28.92;;
3587;SDS011;1808;53.596;9.972;2023-02-15T05:09:08;108.68;;;30.45;;
3587;SDS011;1808;53.596;9.972;2023-02-15T05:11:34;105.90;;;32.05;;
3587;SDS011;1808;53.596;9.972;2023-02-15T05:14:01;106.15;;;29.90;;
3587;SDS011;1808;53.596;9.972;2023-02-15T05:16:28;107.60;;;31.33;;
3587;SDS011;1808;53.596;9.972;2023-02-15T05:18:55;115.72;;;33.22;;
3587;SDS011;1808;53.596;9.972;2023-02-15T05:21:21;151.93;;;35.95;;
3587;SDS011;1808;53.596;9.972;2023-02-15T05:23:47;148.52;;;36.55;;
3587;SDS011;1808;53.596;9.972;2023-02-15T05:26:15;120.97;;;31.25;;
3587;SDS011;1808;53.596;9.972;2023-02-15T05:29:01;108.78;;;30.98;;
3587;SDS011;1808;53.596;9.972;2023-02-15T05:31:28;116.68;;;32.65;;
3587;SDS011;1808;53.596;9.972;2023-02-15T05:33:55;108.75;;;31.00;;
3587;SDS011;1808;53.596;9.972;2023-02-15T05:36:21;105.60;;;30.70;;
3587;SDS011;1808;53.596;9.972;2023-02-15T05:38:47;140.40;;;36.53;;
3587;SDS011;1808;53.596;9.972;2023-02-15T05:41:13;111.65;;;30.95;;
3587;SDS011;1808;53.596;9.972;2023-02-15T05:43:40;127.95;;;33.25;;
3587;SDS011;1808;53.596;9.972;2023-02-15T05:46:07;110.13;;;31.42;;
3587;SDS011;1808;53.596;9.972;2023-02-15T05:48:34;117.68;;;32.88;;
3587;SDS011;1808;53.596;9.972;2023-02-15T05:51:01;124.15;;;31.23;;
3587;SDS011;1808;53.596;9.972;2023-02-15T05:53:29;127.53;;;31.98;;
3587;SDS011;1808;53.596;9.972;2023-02-15T05:55:56;119.40;;;31.83;;
3587;SDS011;1808;53.596;9.972;2023-02-15T05:58:24;106.18;;;30.30;;
3587;SDS011;1808;53.596;9.972;2023-02-15T06:00:51;110.35;;;31.17;;
3587;SDS011;1808;53.596;9.972;2023-02-15T06:03:18;99.68;;;28.80;;
3587;SDS011;1808;53.596;9.972;2023-02-15T06:05:45;101.90;;;29.08;;
3587;SDS011;1808;53.596;9.972;2023-02-15T06:08:12;121.32;;;31.48;;
3587;SDS011;1808;53.596;9.972;2023-02-15T06:10:38;143.90;;;35.28;;
3587;SDS011;1808;53.596;9.972;2023-02-15T06:13:05;136.23;;;35.47;;
3587;SDS011;1808;53.596;9.972;2023-02-15T06:15:32;96.50;;;29.30;;
3587;SDS011;1808;53.596;9.972;2023-02-15T06:17:58;140.23;;;35.92;;
3587;SDS011;1808;53.596;9.972;2023-02-15T06:20:24;116.55;;;31.67;;
3587;SDS011;1808;53.596;9.972;2023-02-15T06:22:52;139.82;;;36.30;;
3587;SDS011;1808;53.596;9.972;2023-02-15T06:25:19;121.82;;;32.08;;
3587;SDS011;1808;53.596;9.972;2023-02-15T06:27:45;122.80;;;32.40;;
3587;SDS011;1808;53.596;9.972;2023-02-15T06:30:12;115.32;;;31.60;;
3587;SDS011;1808;53.596;9.972;2023-02-15T06:32:40;117.85;;;30.60;;
3587;SDS011;1808;53.596;9.972;2023-02-15T06:35:07;114.47;;;30.80;;
3587;SDS011;1808;53.596;9.972;2023-02-15T06:37:33;107.80;;;30.23;;
3587;SDS011;1808;53.596;9.972;2023-02-15T06:40:01;111.68;;;30.40;;
3587;SDS011;1808;53.596;9.972;2023-02-15T06:42:28;119.53;;;35.47;;
3587;SDS011;1808;53.596;9.972;2023-02-15T06:44:55;114.05;;;31.27;;
3587;SDS011;1808;53.596;9.972;2023-02-15T06:47:22;113.05;;;32.85;;
3587;SDS011;1808;53.596;9.972;2023-02-15T06:49:48;125.35;;;34.20;;
3587;SDS011;1808;53.596;9.972;2023-02-15T06:52:15;125.72;;;37.83;;
3587;SDS011;1808;53.596;9.972;2023-02-15T06:54:41;117.05;;;33.90;;
3587;SDS011;1808;53.596;9.972;2023-02-15T06:57:09;150.32;;;41.67;;
3587;SDS011;1808;53.596;9.972;2023-02-15T06:59:35;126.95;;;33.22;;
3587;SDS011;1808;53.596;9.972;2023-02-15T07:02:01;134.43;;;35.28;;
3587;SDS011;1808;53.596;9.972;2023-02-15T07:04:28;124.15;;;34.47;;
3587;SDS011;1808;53.596;9.972;2023-02-15T07:06:54;146.20;;;37.42;;
3587;SDS011;1808;53.596;9.972;2023-02-15T07:09:21;115.93;;;30.73;;
3587;SDS011;1808;53.596;9.972;2023-02-15T07:11:48;115.25;;;31.98;;
3587;SDS011;1808;53.596;9.972;2023-02-15T07:14:33;108.93;;;30.98;;
3587;SDS011;1808;53.596;9.972;2023-02-15T07:16:59;124.40;;;33.83;;
3587;SDS011;1808;53.596;9.972;2023-02-15T07:19:26;117.20;;;30.73;;
3587;SDS011;1808;53.596;9.972;2023-02-15T07:21:52;169.70;;;43.90;;
3587;SDS011;1808;53.596;9.972;2023-02-15T07:24:18;118.75;;;33.25;;
3587;SDS011;1808;53.596;9.972;2023-02-15T07:26:45;115.70;;;33.30;;
3587;SDS011;1808;53.596;9.972;2023-02-15T07:29:11;107.70;;;34.70;;
3587;SDS011;1808;53.596;9.972;2023-02-15T07:31:39;115.00;;;33.00;;
3587;SDS011;1808;53.596;9.972;2023-02-15T07:34:05;109.72;;;29.70;;
3587;SDS011;1808;53.596;9.972;2023-02-15T07:36:32;118.70;;;36.17;;
3587;SDS011;1808;53.596;9.972;2023-02-15T07:38:58;139.07;;;37.58;;
3587;SDS011;1808;53.596;9.972;2023-02-15T07:41:24;122.25;;;32.38;;
3587;SDS011;1808;53.596;9.972;2023-02-15T07:43:51;121.43;;;34.65;;
3587;SDS011;1808;53.596;9.972;2023-02-15T07:46:17;113.32;;;31.67;;
3587;SDS011;1808;53.596;9.972;2023-02-15T07:48:47;118.70;;;34.22;;
3587;SDS011;1808;53.596;9.972;2023-02-15T07:51:14;116.35;;;34.80;;
3587;SDS011;1808;53.596;9.972;2023-02-15T07:53:41;118.50;;;32.10;;
3587;SDS011;1808;53.596;9.972;2023-02-15T07:56:09;103.18;;;31.55;;
3587;SDS011;1808;53.596;9.972;2023-02-15T07:58:36;119.82;;;33.47;;
3587;SDS011;1808;53.596;9.972;2023-02-15T08:01:19;132.07;;;34.80;;
3587;SDS011;1808;53.596;9.972;2023-02-15T08:03:48;120.53;;;34.03;;
3587;SDS011;1808;53.596;9.972;2023-02-15T08:06:14;108.25;;;31.75;;
3587;SDS011;1808;53.596;9.972;2023-02-15T08:08:41;124.25;;;33.72;;
3587;SDS011;1808;53.596;9.972;2023-02-15T08:11:14;120.63;;;34.72;;
3587;SDS011;1808;53.596;9.972;2023-02-15T08:14:03;113.05;;;33.63;;
3587;SDS011;1808;53.596;9.972;2023-02-15T08:16:32;126.97;;;36.25;;
3587;SDS011;1808;53.596;9.972;2023-02-15T08:19:02;115.38;;;34.97;;
3587;SDS011;1808;53.596;9.972;2023-02-15T08:21:30;103.03;;;31.20;;
3587;SDS011;1808;53.596;9.972;2023-02-15T08:23:57;110.07;;;36.30;;
3587;SDS011;1808;53.596;9.972;2023-02-15T08:26:24;102.78;;;30.52;;
3587;SDS011;1808;53.596;9.972;2023-02-15T08:28:51;95.32;;;30.80;;
3587;SDS011;1808;53.596;9.972;2023-02-15T08:31:17;105.40;;;31.38;;
3587;SDS011;1808;53.596;9.972;2023-02-15T08:33:45;111.80;;;34.67;;
3587;SDS011;1808;53.596;9.972;2023-02-15T08:46:20;98.40;;;28.85;;
3587;SDS011;1808;53.596;9.972;2023-02-15T08:48:47;109.95;;;32.25;;
3587;SDS011;1808;53.596;9.972;2023-02-15T08:51:14;94.75;;;30.42;;
3587;SDS011;1808;53.596;9.972;2023-02-15T08:53:41;137.75;;;40.17;;
3587;SDS011;1808;53.596;9.972;2023-02-15T08:56:09;108.68;;;29.73;;
3587;SDS011;1808;53.596;9.972;2023-02-15T08:58:35;102.18;;;31.80;;
3587;SDS011;1808;53.596;9.972;2023-02-15T09:01:07;96.57;;;31.45;;
3587;SDS011;1808;53.596;9.972;2023-02-15T09:03:36;93.38;;;30.98;;
3587;SDS011;1808;53.596;9.972;2023-02-15T09:06:03;109.82;;;34.15;;
3587;SDS011;1808;53.596;9.972;2023-02-15T09:08:30;106.30;;;35.45;;
3587;SDS011;1808;53.596;9.972;2023-02-15T09:13:32;103.45;;;32.25;;
3587;SDS011;1808;53.596;9.972;2023-02-15T09:15:59;98.75;;;32.08;;
3587;SDS011;1808;53.596;9.972;2023-02-15T09:18:26;101.57;;;29.33;;
3587;SDS011;1808;53.596;9.972;2023-02-15T09:20:54;98.47;;;30.67;;
3587;SDS011;1808;53.596;9.972;2023-02-15T09:23:21;98.28;;;31.83;;
3587;SDS011;1808;53.596;9.972;2023-02-15T09:25:47;107.95;;;33.72;;
3587;SDS011;1808;53.596;9.972;2023-02-15T09:28:14;112.05;;;34.97;;
3587;SDS011;1808;53.596;9.972;2023-02-15T09:30:40;106.88;;;35.30;;
3587;SDS011;1808;53.596;9.972;2023-02-15T09:33:06;107.63;;;34.75;;
3587;SDS011;1808;53.596;9.972;2023-02-15T09:35:33;102.07;;;32.20;;
3587;SDS011;1808;53.596;9.972;2023-02-15T09:38:00;100.72;;;32.50;;
3587;SDS011;1808;53.596;9.972;2023-02-15T09:40:27;104.45;;;34.30;;
3587;SDS011;1808;53.596;9.972;2023-02-15T09:43:08;101.93;;;31.20;;
3587;SDS011;1808;53.596;9.972;2023-02-15T09:45:45;118.53;;;41.03;;
3587;SDS011;1808;53.596;9.972;2023-02-15T09:51:12;106.13;;;34.00;;
3587;SDS011;1808;53.596;9.972;2023-02-15T09:53:54;112.53;;;35.00;;
3587;SDS011;1808;53.596;9.972;2023-02-15T09:56:28;94.70;;;30.83;;
3587;SDS011;1808;53.596;9.972;2023-02-15T09:59:03;106.55;;;32.90;;
3587;SDS011;1808;53.596;9.972;2023-02-15T10:01:34;93.35;;;31.90;;
3587;SDS011;1808;53.596;9.972;2023-02-15T10:06:54;113.93;;;35.80;;
3587;SDS011;1808;53.596;9.972;2023-02-15T10:09:31;101.45;;;32.35;;
3587;SDS011;1808;53.596;9.972;2023-02-15T10:12:04;103.22;;;34.80;;
3587;SDS011;1808;53.596;9.972;2023-02-15T10:14:52;104.85;;;36.90;;
3587;SDS011;1808;53.596;9.972;2023-02-15T10:17:32;98.45;;;32.35;;
3587;SDS011;1808;53.596;9.972;2023-02-15T10:20:10;99.07;;;33.05;;
3587;SDS011;1808;53.596;9.972;2023-02-15T10:22:45;97.50;;;32.92;;
3587;SDS011;1808;53.596;9.972;2023-02-15T10:25:23;97.60;;;34.60;;
3587;SDS011;1808;53.596;9.972;2023-02-15T10:27:55;94.00;;;31.13;;
3587;SDS011;1808;53.596;9.972;2023-02-15T10:30:27;111.20;;;37.00;;
3587;SDS011;1808;53.596;9.972;2023-02-15T10:32:59;104.43;;;36.75;;
3587;SDS011;1808;53.596;9.972;2023-02-15T10:35:30;99.90;;;34.42;;
3587;SDS011;1808;53.596;9.972;2023-02-15T10:38:13;113.43;;;39.42;;
3587;SDS011;1808;53.596;9.972;2023-02-15T10:40:50;99.88;;;38.75;;
3587;SDS011;1808;53.596;9.972;2023-02-15T10:43:27;100.57;;;36.78;;
3587;SDS011;1808;53.596;9.972;2023-02-15T10:46:03;94.53;;;31.98;;
3587;SDS011;1808;53.596;9.972;2023-02-15T10:48:39;84.88;;;30.08;;
3587;SDS011;1808;53.596;9.972;2023-02-15T10:51:18;90.05;;;31.25;;
3587;SDS011;1808;53.596;9.972;2023-02-15T10:53:58;79.10;;;29.42;;
3587;SDS011;1808;53.596;9.972;2023-02-15T10:56:35;98.15;;;34.10;;
3587;SDS011;1808;53.596;9.972;2023-02-15T10:59:08;83.85;;;31.98;;
3587;SDS011;1808;53.596;9.972;2023-02-15T11:01:43;85.25;;;32.05;;
3587;SDS011;1808;53.596;9.972;2023-02-15T11:04:23;87.65;;;32.15;;
3587;SDS011;1808;53.596;9.972;2023-02-15T11:07:08;77.65;;;32.92;;
3587;SDS011;1808;53.596;9.972;2023-02-15T11:09:40;82.18;;;31.80;;
3587;SDS011;1808;53.596;9.972;2023-02-15T11:12:11;79.88;;;31.77;;
3587;SDS011;1808;53.596;9.972;2023-02-15T11:14:40;83.40;;;30.20;;
3587;SDS011;1808;53.596;9.972;2023-02-15T11:17:14;85.53;;;32.83;;
3587;SDS011;1808;53.596;9.972;2023-02-15T11:19:45;80.25;;;30.38;;
3587;SDS011;1808;53.596;9.972;2023-02-15T11:22:16;77.13;;;31.60;;
3587;SDS011;1808;53.596;9.972;2023-02-15T11:24:43;75.55;;;31.00;;
3587;SDS011;1808;53.596;9.972;2023-02-15T11:27:16;72.75;;;30.42;;
3587;SDS011;1808;53.596;9.972;2023-02-15T11:29:46;84.05;;;35.33;;
3587;SDS011;1808;53.596;9.972;2023-02-15T11:32:19;86.93;;;37.17;;
3587;SDS011;1808;53.596;9.972;2023-02-15T11:34:49;82.03;;;31.88;;
3587;SDS011;1808;53.596;9.972;2023-02-15T11:37:18;87.68;;;36.40;;
3587;SDS011;1808;53.596;9.972;2023-02-15T11:39:47;92.85;;;35.33;;
3587;SDS011;1808;53.596;9.972;2023-02-15T11:42:19;75.75;;;31.85;;
3587;SDS011;1808;53.596;9.972;2023-02-15T11:44:50;82.00;;;35.63;;
3587;SDS011;1808;53.596;9.972;2023-02-15T11:47:22;87.38;;;38.10;;
3587;SDS011;1808;53.596;9.972;2023-02-15T11:49:49;89.88;;;36.80;;
3587;SDS011;1808;53.596;9.972;2023-02-15T11:52:15;84.72;;;35.33;;
3587;SDS011;1808;53.596;9.972;2023-02-15T11:54:43;82.15;;;34.72;;
3587;SDS011;1808;53.596;9.972;2023-02-15T11:57:14;81.50;;;36.95;;
3587;SDS011;1808;53.596;9.972;2023-02-15T11:59:46;83.10;;;32.05;;
3587;SDS011;1808;53.596;9.972;2023-02-15T12:02:15;79.70;;;36.63;;
3587;SDS011;1808;53.596;9.972;2023-02-15T12:04:46;78.45;;;32.78;;
3587;SDS011;1808;53.596;9.972;2023-02-15T12:07:15;77.50;;;33.53;;
3587;SDS011;1808;53.596;9.972;2023-02-15T12:09:45;76.20;;;32.70;;
3587;SDS011;1808;53.596;9.972;2023-02-15T12:12:21;80.18;;;36.60;;
3587;SDS011;1808;53.596;9.972;2023-02-15T12:14:51;72.45;;;30.88;;
3587;SDS011;1808;53.596;9.972;2023-02-15T12:17:18;76.07;;;34.58;;
3587;SDS011;1808;53.596;9.972;2023-02-15T12:19:47;69.18;;;32.60;;
3587;SDS011;1808;53.596;9.972;2023-02-15T12:22:20;73.90;;;33.40;;
3587;SDS011;1808;53.596;9.972;2023-02-15T12:24:49;74.88;;;35.10;;
3587;SDS011;1808;53.596;9.972;2023-02-15T12:27:17;74.28;;;33.72;;
3587;SDS011;1808;53.596;9.972;2023-02-15T12:29:47;84.00;;;39.28;;
3587;SDS011;1808;53.596;9.972;2023-02-15T12:32:22;77.95;;;34.88;;
3587;SDS011;1808;53.596;9.972;2023-02-15T12:34:50;84.43;;;37.47;;
3587;SDS011;1808;53.596;9.972;2023-02-15T12:37:19;79.03;;;34.13;;
3587;SDS011;1808;53.596;9.972;2023-02-15T12:39:50;81.78;;;36.53;;
3587;SDS011;1808;53.596;9.972;2023-02-15T12:42:18;79.78;;;33.92;;
3587;SDS011;1808;53.596;9.972;2023-02-15T12:45:01;79.60;;;32.55;;
3587;SDS011;1808;53.596;9.972;2023-02-15T12:47:30;78.78;;;34.95;;
3587;SDS011;1808;53.596;9.972;2023-02-15T12:50:08;80.45;;;32.55;;
3587;SDS011;1808;53.596;9.972;2023-02-15T12:52:42;77.03;;;33.38;;
3587;SDS011;1808;53.596;9.972;2023-02-15T12:55:11;75.30;;;33.63;;
3587;SDS011;1808;53.596;9.972;2023-02-15T12:57:45;77.15;;;33.53;;
3587;SDS011;1808;53.596;9.972;2023-02-15T13:00:24;70.72;;;30.98;;
3587;SDS011;1808;53.596;9.972;2023-02-15T13:02:55;74.53;;;36.15;;
3587;SDS011;1808;53.596;9.972;2023-02-15T13:05:23;75.00;;;32.25;;
3587;SDS011;1808;53.596;9.972;2023-02-15T13:07:53;75.57;;;35.10;;
3587;SDS011;1808;53.596;9.972;2023-02-15T13:10:24;70.53;;;33.10;;
3587;SDS011;1808;53.596;9.972;2023-02-15T13:12:53;71.53;;;31.98;;
3587;SDS011;1808;53.596;9.972;2023-02-15T13:15:27;68.72;;;31.67;;
3587;SDS011;1808;53.596;9.972;2023-02-15T13:17:58;73.28;;;32.22;;
3587;SDS011;1808;53.596;9.972;2023-02-15T13:20:25;66.50;;;32.08;;
3587;SDS011;1808;53.596;9.972;2023-02-15T13:22:54;68.97;;;32.70;;
3587;SDS011;1808;53.596;9.972;2023-02-15T13:25:24;70.05;;;33.08;;
3587;SDS011;1808;53.596;9.972;2023-02-15T13:27:52;72.03;;;35.15;;
3587;SDS011;1808;53.596;9.972;2023-02-15T13:30:22;68.63;;;33.00;;
3587;SDS011;1808;53.596;9.972;2023-02-15T13:32:51;72.75;;;35.90;;
3587;SDS011;1808;53.596;9.972;2023-02-15T13:35:20;66.40;;;32.55;;
3587;SDS011;1808;53.596;9.972;2023-02-15T13:37:55;66.90;;;31.65;;
3587;SDS011;1808;53.596;9.972;2023-02-15T13:40:30;66.57;;;32.65;;
3587;SDS011;1808;53.596;9.972;2023-02-15T13:43:01;68.68;;;32.70;;
3587;SDS011;1808;53.596;9.972;2023-02-15T13:45:36;72.78;;;32.05;;
3587;SDS011;1808;53.596;9.972;2023-02-15T13:48:09;69.32;;;32.78;;
3587;SDS011;1808;53.596;9.972;2023-02-15T13:50:50;69.97;;;34.10;;
3587;SDS011;1808;53.596;9.972;2023-02-15T13:56:26;73.75;;;32.35;;
3587;SDS011;1808;53.596;9.972;2023-02-15T13:59:00;80.82;;;36.40;;
3587;SDS011;1808;53.596;9.972;2023-02-15T14:01:37;70.70;;;32.85;;
3587;SDS011;1808;53.596;9.972;2023-02-15T14:07:10;84.10;;;35.38;;
3587;SDS011;1808;53.596;9.972;2023-02-15T14:09:43;77.88;;;34.78;;
3587;SDS011;1808;53.596;9.972;2023-02-15T14:12:25;79.25;;;33.33;;
3587;SDS011;1808;53.596;9.972;2023-02-15T14:15:08;76.63;;;33.00;;
3587;SDS011;1808;53.596;9.972;2023-02-15T14:17:43;74.93;;;31.98;;
3587;SDS011;1808;53.596;9.972;2023-02-15T14:20:18;74.95;;;33.00;;
3587;SDS011;1808;53.596;9.972;2023-02-15T14:22:49;72.97;;;33.63;;
3587;SDS011;1808;53.596;9.972;2023-02-15T14:25:20;69.72;;;32.40;;
3587;SDS011;1808;53.596;9.972;2023-02-15T14:27:55;74.75;;;33.30;;
3587;SDS011;1808;53.596;9.972;2023-02-15T14:30:23;70.85;;;30.83;;
3587;SDS011;1808;53.596;9.972;2023-02-15T14:32:52;73.65;;;32.65;;
3587;SDS011;1808;53.596;9.972;2023-02-15T14:35:21;68.32;;;31.80;;
3587;SDS011;1808;53.596;9.972;2023-02-15T14:37:51;64.90;;;31.60;;
3587;SDS011;1808;53.596;9.972;2023-02-15T14:40:24;70.20;;;32.03;;
3587;SDS011;1808;53.596;9.972;2023-02-15T14:43:19;62.53;;;30.15;;
3587;SDS011;1808;53.596;9.972;2023-02-15T14:45:52;65.18;;;31.00;;
3587;SDS011;1808;53.596;9.972;2023-02-15T14:48:20;64.57;;;29.35;;
3587;SDS011;1808;53.596;9.972;2023-02-15T14:50:49;58.42;;;30.05;;
3587;SDS011;1808;53.596;9.972;2023-02-15T14:53:27;64.95;;;31.45;;
3587;SDS011;1808;53.596;9.972;2023-02-15T14:58:54;62.38;;;31.60;;
3587;SDS011;1808;53.596;9.972;2023-02-15T15:01:24;56.90;;;27.92;;
3587;SDS011;1808;53.596;9.972;2023-02-15T15:03:53;56.47;;;27.95;;
3587;SDS011;1808;53.596;9.972;2023-02-15T15:06:23;57.30;;;29.75;;
3587;SDS011;1808;53.596;9.972;2023-02-15T15:08:54;59.40;;;28.80;;
3587;SDS011;1808;53.596;9.972;2023-02-15T15:11:37;60.15;;;28.85;;
3587;SDS011;1808;53.596;9.972;2023-02-15T15:17:03;60.03;;;30.15;;
3587;SDS011;1808;53.596;9.972;2023-02-15T15:22:38;56.08;;;28.83;;
3587;SDS011;1808;53.596;9.972;2023-02-15T15:25:10;56.42;;;28.30;;
3587;SDS011;1808;53.596;9.972;2023-02-15T15:27:43;55.42;;;28.25;;
3587;SDS011;1808;53.596;9.972;2023-02-15T15:33:18;63.45;;;32.03;;
3587;SDS011;1808;53.596;9.972;2023-02-15T15:36:00;59.05;;;29.02;;
3587;SDS011;1808;53.596;9.972;2023-02-15T15:38:39;60.28;;;29.20;;
3587;SDS011;1808;53.596;9.972;2023-02-15T15:41:17;55.63;;;29.90;;